sensor_id;sensor_type;location;lat;lon;timestamp;P1;durP1;ratioP1;P2;durP2;ratioP2
34152;SDS011;20426;48.372;10.888;2023-04-03T00:00:12;5.90;;;3.08;;
34152;SDS011;20426;48.372;10.888;2023-04-03T00:00:43;3.65;;;3.05;;
34152;SDS011;20426;48.372;10.888;2023-04-03T00:01:14;5.15;;;2.83;;
34152;SDS011;20426;48.372;10.888;2023-04-03T00:01:46;3.63;;;2.80;;
34152;SDS011;20426;48.372;10.888;2023-04-03T00:02:17;5.22;;;3.25;;
34152;SDS011;20426;48.372;10.888;2023-04-03T00:02:47;4.43;;;2.92;;
34152;SDS011;20426;48.372;10.888;2023-04-03T00:03:18;3.78;;;2.80;;
34152;SDS011;20426;48.372;10.888;2023-04-03T00:03:50;3.80;;;3.05;;
34152;SDS011;20426;48.372;10.888;2023-04-03T00:04:21;3.88;;;2.40;;
34152;SDS011;20426;48.372;10.888;2023-04-03T00:04:52;4.75;;;2.90;;
34152;SDS011;20426;48.372;10.888;2023-04-03T00:05:23;3.90;;;2.60;;
34152;SDS011;20426;48.372;10.888;2023-04-03T00:05:53;2.95;;;2.58;;
34152;SDS011;20426;48.372;10.888;2023-04-03T00:06:25;2.83;;;2.60;;
34152;SDS011;20426;48.372;10.888;2023-04-03T00:06:56;3.55;;;2.72;;
34152;SDS011;20426;48.372;10.888;2023-04-03T00:07:27;3.70;;;2.45;;
34152;SDS011;20426;48.372;10.888;2023-04-03T00:07:57;3.40;;;2.78;;
34152;SDS011;20426;48.372;10.888;2023-04-03T00:08:28;8.13;;;3.78;;
34152;SDS011;20426;48.372;10.888;2023-04-03T00:09:01;4.53;;;2.83;;
34152;SDS011;20426;48.372;10.888;2023-04-03T00:09:31;3.25;;;2.60;;
34152;SDS011;20426;48.372;10.888;2023-04-03T00:10:02;3.67;;;2.97;;
34152;SDS011;20426;48.372;10.888;2023-04-03T00:10:33;4.80;;;2.75;;
34152;SDS011;20426;48.372;10.888;2023-04-03T00:11:05;3.00;;;2.58;;
34152;SDS011;20426;48.372;10.888;2023-04-03T00:11:36;4.68;;;3.17;;
34152;SDS011;20426;48.372;10.888;2023-04-03T00:12:06;4.10;;;3.13;;
34152;SDS011;20426;48.372;10.888;2023-04-03T00:12:37;3.60;;;2.80;;
34152;SDS011;20426;48.372;10.888;2023-04-03T00:13:08;4.45;;;2.83;;
34152;SDS011;20426;48.372;10.888;2023-04-03T00:13:39;3.92;;;2.70;;
34152;SDS011;20426;48.372;10.888;2023-04-03T00:14:10;7.68;;;3.42;;
34152;SDS011;20426;48.372;10.888;2023-04-03T00:14:41;3.22;;;2.72;;
34152;SDS011;20426;48.372;10.888;2023-04-03T00:15:11;3.53;;;2.85;;
34152;SDS011;20426;48.372;10.888;2023-04-03T00:15:42;3.80;;;2.47;;
34152;SDS011;20426;48.372;10.888;2023-04-03T00:16:13;4.95;;;2.75;;
34152;SDS011;20426;48.372;10.888;2023-04-03T00:16:44;4.72;;;3.20;;
34152;SDS011;20426;48.372;10.888;2023-04-03T00:17:15;4.70;;;2.95;;
34152;SDS011;20426;48.372;10.888;2023-04-03T00:17:45;4.07;;;2.60;;
34152;SDS011;20426;48.372;10.888;2023-04-03T00:18:16;3.45;;;2.65;;
34152;SDS011;20426;48.372;10.888;2023-04-03T00:18:47;3.75;;;2.67;;
34152;SDS011;20426;48.372;10.888;2023-04-03T00:19:18;3.25;;;2.40;;
34152;SDS011;20426;48.372;10.888;2023-04-03T00:19:49;3.63;;;2.88;;
34152;SDS011;20426;48.372;10.888;2023-04-03T00:20:20;3.03;;;2.72;;
34152;SDS011;20426;48.372;10.888;2023-04-03T00:20:51;4.28;;;2.53;;
34152;SDS011;20426;48.372;10.888;2023-04-03T00:21:21;3.83;;;2.30;;
34152;SDS011;20426;48.372;10.888;2023-04-03T00:21:52;2.90;;;2.38;;
34152;SDS011;20426;48.372;10.888;2023-04-03T00:22:23;3.08;;;2.42;;
34152;SDS011;20426;48.372;10.888;2023-04-03T00:22:56;4.18;;;2.40;;
34152;SDS011;20426;48.372;10.888;2023-04-03T00:23:27;3.42;;;2.70;;
34152;SDS011;20426;48.372;10.888;2023-04-03T00:23:58;5.20;;;3.13;;
34152;SDS011;20426;48.372;10.888;2023-04-03T00:24:28;3.13;;;2.60;;
34152;SDS011;20426;48.372;10.888;2023-04-03T00:24:59;3.10;;;2.80;;
34152;SDS011;20426;48.372;10.888;2023-04-03T00:25:30;5.50;;;3.70;;
34152;SDS011;20426;48.372;10.888;2023-04-03T00:26:01;5.10;;;2.70;;
34152;SDS011;20426;48.372;10.888;2023-04-03T00:26:32;4.22;;;3.00;;
34152;SDS011;20426;48.372;10.888;2023-04-03T00:27:03;4.55;;;2.42;;
34152;SDS011;20426;48.372;10.888;2023-04-03T00:27:35;3.08;;;2.53;;
34152;SDS011;20426;48.372;10.888;2023-04-03T00:28:07;2.85;;;2.40;;
34152;SDS011;20426;48.372;10.888;2023-04-03T00:28:38;2.47;;;2.17;;
34152;SDS011;20426;48.372;10.888;2023-04-03T00:29:09;3.70;;;2.30;;
34152;SDS011;20426;48.372;10.888;2023-04-03T00:29:40;2.65;;;2.17;;
34152;SDS011;20426;48.372;10.888;2023-04-03T00:30:12;4.85;;;2.45;;
34152;SDS011;20426;48.372;10.888;2023-04-03T00:30:45;3.45;;;2.50;;
34152;SDS011;20426;48.372;10.888;2023-04-03T00:31:15;2.97;;;2.25;;
34152;SDS011;20426;48.372;10.888;2023-04-03T00:31:46;3.38;;;2.40;;
34152;SDS011;20426;48.372;10.888;2023-04-03T00:32:17;3.17;;;2.08;;
34152;SDS011;20426;48.372;10.888;2023-04-03T00:32:48;2.83;;;2.50;;
34152;SDS011;20426;48.372;10.888;2023-04-03T00:33:19;3.97;;;2.47;;
34152;SDS011;20426;48.372;10.888;2023-04-03T00:33:54;2.60;;;2.38;;
34152;SDS011;20426;48.372;10.888;2023-04-03T00:34:25;3.08;;;2.47;;
34152;SDS011;20426;48.372;10.888;2023-04-03T00:34:56;4.85;;;2.55;;
34152;SDS011;20426;48.372;10.888;2023-04-03T00:35:27;3.58;;;2.58;;
34152;SDS011;20426;48.372;10.888;2023-04-03T00:35:58;2.58;;;1.85;;
34152;SDS011;20426;48.372;10.888;2023-04-03T00:36:29;5.07;;;2.78;;
34152;SDS011;20426;48.372;10.888;2023-04-03T00:37:00;3.45;;;2.15;;
34152;SDS011;20426;48.372;10.888;2023-04-03T00:37:30;2.03;;;1.83;;
34152;SDS011;20426;48.372;10.888;2023-04-03T00:38:01;2.67;;;2.22;;
34152;SDS011;20426;48.372;10.888;2023-04-03T00:38:32;2.85;;;2.25;;
34152;SDS011;20426;48.372;10.888;2023-04-03T00:39:03;4.35;;;2.20;;
34152;SDS011;20426;48.372;10.888;2023-04-03T00:39:33;2.50;;;2.10;;
34152;SDS011;20426;48.372;10.888;2023-04-03T00:40:04;3.35;;;2.15;;
34152;SDS011;20426;48.372;10.888;2023-04-03T00:40:37;2.65;;;2.30;;
34152;SDS011;20426;48.372;10.888;2023-04-03T00:41:11;2.67;;;1.95;;
34152;SDS011;20426;48.372;10.888;2023-04-03T00:41:42;3.08;;;2.30;;
34152;SDS011;20426;48.372;10.888;2023-04-03T00:42:12;2.08;;;1.80;;
34152;SDS011;20426;48.372;10.888;2023-04-03T00:42:43;2.22;;;2.00;;
34152;SDS011;20426;48.372;10.888;2023-04-03T00:43:22;2.03;;;1.83;;
34152;SDS011;20426;48.372;10.888;2023-04-03T00:43:56;2.30;;;2.08;;
34152;SDS011;20426;48.372;10.888;2023-04-03T00:45:37;2.72;;;1.80;;
34152;SDS011;20426;48.372;10.888;2023-04-03T00:46:10;3.25;;;2.22;;
34152;SDS011;20426;48.372;10.888;2023-04-03T00:46:41;3.92;;;2.75;;
34152;SDS011;20426;48.372;10.888;2023-04-03T00:47:12;2.30;;;2.10;;
34152;SDS011;20426;48.372;10.888;2023-04-03T00:47:45;2.15;;;1.95;;
34152;SDS011;20426;48.372;10.888;2023-04-03T00:48:18;3.97;;;2.20;;
34152;SDS011;20426;48.372;10.888;2023-04-03T00:48:52;2.00;;;1.77;;
34152;SDS011;20426;48.372;10.888;2023-04-03T00:49:22;3.95;;;2.15;;
34152;SDS011;20426;48.372;10.888;2023-04-03T00:49:53;6.78;;;2.47;;
34152;SDS011;20426;48.372;10.888;2023-04-03T00:50:24;2.40;;;2.03;;
34152;SDS011;20426;48.372;10.888;2023-04-03T00:50:55;4.40;;;2.08;;
34152;SDS011;20426;48.372;10.888;2023-04-03T00:51:27;3.70;;;2.03;;
34152;SDS011;20426;48.372;10.888;2023-04-03T00:51:58;2.10;;;1.90;;
34152;SDS011;20426;48.372;10.888;2023-04-03T00:52:29;2.35;;;1.90;;
34152;SDS011;20426;48.372;10.888;2023-04-03T00:53:01;3.40;;;2.08;;
34152;SDS011;20426;48.372;10.888;2023-04-03T00:53:35;2.60;;;2.00;;
34152;SDS011;20426;48.372;10.888;2023-04-03T00:54:10;2.50;;;1.80;;
34152;SDS011;20426;48.372;10.888;2023-04-03T00:54:42;3.20;;;2.05;;
34152;SDS011;20426;48.372;10.888;2023-04-03T00:55:15;2.92;;;1.88;;
34152;SDS011;20426;48.372;10.888;2023-04-03T00:55:47;2.15;;;1.60;;
34152;SDS011;20426;48.372;10.888;2023-04-03T00:56:19;2.53;;;1.98;;
34152;SDS011;20426;48.372;10.888;2023-04-03T00:56:54;2.53;;;1.80;;
34152;SDS011;20426;48.372;10.888;2023-04-03T00:57:28;1.83;;;1.55;;
34152;SDS011;20426;48.372;10.888;2023-04-03T00:58:00;2.38;;;1.90;;
34152;SDS011;20426;48.372;10.888;2023-04-03T00:58:34;4.35;;;1.73;;
34152;SDS011;20426;48.372;10.888;2023-04-03T00:59:10;1.50;;;1.40;;
34152;SDS011;20426;48.372;10.888;2023-04-03T00:59:54;2.05;;;1.85;;
34152;SDS011;20426;48.372;10.888;2023-04-03T01:00:29;3.08;;;1.95;;
34152;SDS011;20426;48.372;10.888;2023-04-03T01:01:00;2.05;;;1.55;;
34152;SDS011;20426;48.372;10.888;2023-04-03T01:01:36;2.83;;;2.00;;
34152;SDS011;20426;48.372;10.888;2023-04-03T01:02:07;3.78;;;2.00;;
34152;SDS011;20426;48.372;10.888;2023-04-03T01:02:38;2.47;;;1.98;;
34152;SDS011;20426;48.372;10.888;2023-04-03T01:03:10;1.90;;;1.67;;
34152;SDS011;20426;48.372;10.888;2023-04-03T01:03:41;2.38;;;1.70;;
34152;SDS011;20426;48.372;10.888;2023-04-03T01:04:26;1.92;;;1.45;;
34152;SDS011;20426;48.372;10.888;2023-04-03T01:04:58;2.80;;;1.73;;
34152;SDS011;20426;48.372;10.888;2023-04-03T01:05:28;1.90;;;1.75;;
34152;SDS011;20426;48.372;10.888;2023-04-03T01:05:59;4.45;;;1.90;;
34152;SDS011;20426;48.372;10.888;2023-04-03T01:06:32;2.22;;;1.67;;
34152;SDS011;20426;48.372;10.888;2023-04-03T01:07:06;2.13;;;1.75;;
34152;SDS011;20426;48.372;10.888;2023-04-03T01:07:42;3.08;;;1.95;;
34152;SDS011;20426;48.372;10.888;2023-04-03T01:08:15;2.42;;;1.88;;
34152;SDS011;20426;48.372;10.888;2023-04-03T01:08:46;3.63;;;1.88;;
34152;SDS011;20426;48.372;10.888;2023-04-03T01:09:19;2.65;;;2.17;;
34152;SDS011;20426;48.372;10.888;2023-04-03T01:09:51;1.98;;;1.77;;
34152;SDS011;20426;48.372;10.888;2023-04-03T01:10:26;2.97;;;2.33;;
34152;SDS011;20426;48.372;10.888;2023-04-03T01:10:57;4.10;;;1.98;;
34152;SDS011;20426;48.372;10.888;2023-04-03T01:12:15;2.75;;;1.80;;
34152;SDS011;20426;48.372;10.888;2023-04-03T01:12:49;2.78;;;1.92;;
34152;SDS011;20426;48.372;10.888;2023-04-03T01:13:25;3.83;;;2.08;;
34152;SDS011;20426;48.372;10.888;2023-04-03T01:14:00;2.67;;;1.90;;
34152;SDS011;20426;48.372;10.888;2023-04-03T01:14:31;2.38;;;1.85;;
34152;SDS011;20426;48.372;10.888;2023-04-03T01:15:04;4.05;;;2.05;;
34152;SDS011;20426;48.372;10.888;2023-04-03T01:15:39;5.18;;;1.95;;
34152;SDS011;20426;48.372;10.888;2023-04-03T01:16:10;1.50;;;1.40;;
34152;SDS011;20426;48.372;10.888;2023-04-03T01:16:41;3.33;;;1.98;;
34152;SDS011;20426;48.372;10.888;2023-04-03T01:18:08;2.00;;;1.80;;
34152;SDS011;20426;48.372;10.888;2023-04-03T01:18:40;1.98;;;1.70;;
34152;SDS011;20426;48.372;10.888;2023-04-03T01:19:13;3.20;;;1.90;;
34152;SDS011;20426;48.372;10.888;2023-04-03T01:19:47;1.73;;;1.60;;
34152;SDS011;20426;48.372;10.888;2023-04-03T01:22:59;2.92;;;1.98;;
34152;SDS011;20426;48.372;10.888;2023-04-03T01:23:43;2.60;;;1.60;;
34152;SDS011;20426;48.372;10.888;2023-04-03T01:24:33;3.00;;;1.63;;
34152;SDS011;20426;48.372;10.888;2023-04-03T01:25:06;2.83;;;2.10;;
34152;SDS011;20426;48.372;10.888;2023-04-03T01:25:44;2.50;;;1.85;;
34152;SDS011;20426;48.372;10.888;2023-04-03T01:26:22;2.65;;;1.60;;
34152;SDS011;20426;48.372;10.888;2023-04-03T01:26:55;3.42;;;1.83;;
34152;SDS011;20426;48.372;10.888;2023-04-03T01:27:26;2.63;;;1.65;;
34152;SDS011;20426;48.372;10.888;2023-04-03T01:27:57;3.20;;;1.60;;
34152;SDS011;20426;48.372;10.888;2023-04-03T01:28:29;2.70;;;1.90;;
34152;SDS011;20426;48.372;10.888;2023-04-03T01:29:02;1.95;;;1.73;;
34152;SDS011;20426;48.372;10.888;2023-04-03T01:29:33;2.53;;;1.95;;
34152;SDS011;20426;48.372;10.888;2023-04-03T01:30:05;3.03;;;2.15;;
34152;SDS011;20426;48.372;10.888;2023-04-03T01:30:42;2.65;;;1.65;;
34152;SDS011;20426;48.372;10.888;2023-04-03T01:31:22;3.15;;;1.63;;
34152;SDS011;20426;48.372;10.888;2023-04-03T01:32:02;2.35;;;1.90;;
34152;SDS011;20426;48.372;10.888;2023-04-03T01:32:33;2.83;;;1.52;;
34152;SDS011;20426;48.372;10.888;2023-04-03T01:33:04;2.67;;;1.67;;
34152;SDS011;20426;48.372;10.888;2023-04-03T01:33:35;2.75;;;1.88;;
34152;SDS011;20426;48.372;10.888;2023-04-03T01:34:07;1.70;;;1.60;;
34152;SDS011;20426;48.372;10.888;2023-04-03T01:34:38;2.70;;;1.67;;
34152;SDS011;20426;48.372;10.888;2023-04-03T01:35:09;1.73;;;1.48;;
34152;SDS011;20426;48.372;10.888;2023-04-03T01:35:40;2.42;;;1.80;;
34152;SDS011;20426;48.372;10.888;2023-04-03T01:36:14;2.10;;;1.83;;
34152;SDS011;20426;48.372;10.888;2023-04-03T01:36:46;2.13;;;1.88;;
34152;SDS011;20426;48.372;10.888;2023-04-03T01:37:17;2.33;;;1.67;;
34152;SDS011;20426;48.372;10.888;2023-04-03T01:37:48;2.22;;;1.80;;
34152;SDS011;20426;48.372;10.888;2023-04-03T01:38:19;1.90;;;1.48;;
34152;SDS011;20426;48.372;10.888;2023-04-03T01:38:50;2.95;;;2.00;;
34152;SDS011;20426;48.372;10.888;2023-04-03T01:39:22;2.08;;;1.75;;
34152;SDS011;20426;48.372;10.888;2023-04-03T01:39:53;2.45;;;1.90;;
34152;SDS011;20426;48.372;10.888;2023-04-03T01:40:24;3.00;;;2.22;;
34152;SDS011;20426;48.372;10.888;2023-04-03T01:40:56;2.97;;;1.92;;
34152;SDS011;20426;48.372;10.888;2023-04-03T01:41:27;2.08;;;1.70;;
34152;SDS011;20426;48.372;10.888;2023-04-03T01:41:58;1.83;;;1.63;;
34152;SDS011;20426;48.372;10.888;2023-04-03T01:42:29;3.33;;;1.65;;
34152;SDS011;20426;48.372;10.888;2023-04-03T01:43:00;3.00;;;1.63;;
34152;SDS011;20426;48.372;10.888;2023-04-03T01:43:31;1.52;;;1.42;;
34152;SDS011;20426;48.372;10.888;2023-04-03T01:44:01;2.88;;;1.60;;
34152;SDS011;20426;48.372;10.888;2023-04-03T01:44:33;2.70;;;2.00;;
34152;SDS011;20426;48.372;10.888;2023-04-03T01:45:04;2.75;;;2.00;;
34152;SDS011;20426;48.372;10.888;2023-04-03T01:45:35;2.35;;;1.70;;
34152;SDS011;20426;48.372;10.888;2023-04-03T01:46:06;2.33;;;1.70;;
34152;SDS011;20426;48.372;10.888;2023-04-03T01:46:37;2.08;;;1.55;;
34152;SDS011;20426;48.372;10.888;2023-04-03T01:47:08;2.25;;;1.60;;
34152;SDS011;20426;48.372;10.888;2023-04-03T01:47:39;1.65;;;1.50;;
34152;SDS011;20426;48.372;10.888;2023-04-03T01:48:10;2.80;;;2.17;;
34152;SDS011;20426;48.372;10.888;2023-04-03T01:48:41;1.70;;;1.60;;
34152;SDS011;20426;48.372;10.888;2023-04-03T01:49:11;1.95;;;1.75;;
34152;SDS011;20426;48.372;10.888;2023-04-03T01:49:42;1.92;;;1.55;;
34152;SDS011;20426;48.372;10.888;2023-04-03T01:50:13;2.10;;;1.77;;
34152;SDS011;20426;48.372;10.888;2023-04-03T01:50:44;2.83;;;1.73;;
34152;SDS011;20426;48.372;10.888;2023-04-03T01:51:16;2.25;;;1.88;;
34152;SDS011;20426;48.372;10.888;2023-04-03T01:51:47;3.53;;;1.85;;
34152;SDS011;20426;48.372;10.888;2023-04-03T01:52:17;2.15;;;1.70;;
34152;SDS011;20426;48.372;10.888;2023-04-03T01:52:48;1.73;;;1.40;;
34152;SDS011;20426;48.372;10.888;2023-04-03T01:53:19;3.38;;;2.10;;
34152;SDS011;20426;48.372;10.888;2023-04-03T01:53:49;2.30;;;1.77;;
34152;SDS011;20426;48.372;10.888;2023-04-03T01:54:21;3.25;;;1.80;;
34152;SDS011;20426;48.372;10.888;2023-04-03T01:54:52;2.75;;;1.73;;
34152;SDS011;20426;48.372;10.888;2023-04-03T01:55:22;3.50;;;1.88;;
34152;SDS011;20426;48.372;10.888;2023-04-03T01:55:53;2.58;;;1.90;;
34152;SDS011;20426;48.372;10.888;2023-04-03T01:56:24;3.35;;;1.58;;
34152;SDS011;20426;48.372;10.888;2023-04-03T01:56:55;1.95;;;1.70;;
34152;SDS011;20426;48.372;10.888;2023-04-03T01:57:26;3.60;;;2.50;;
34152;SDS011;20426;48.372;10.888;2023-04-03T01:57:57;2.45;;;1.70;;
34152;SDS011;20426;48.372;10.888;2023-04-03T01:58:27;1.92;;;1.55;;
34152;SDS011;20426;48.372;10.888;2023-04-03T01:58:58;3.40;;;1.75;;
34152;SDS011;20426;48.372;10.888;2023-04-03T01:59:29;2.45;;;1.80;;
34152;SDS011;20426;48.372;10.888;2023-04-03T01:59:59;2.25;;;1.60;;
34152;SDS011;20426;48.372;10.888;2023-04-03T02:00:30;1.75;;;1.48;;
34152;SDS011;20426;48.372;10.888;2023-04-03T02:01:01;1.80;;;1.38;;
34152;SDS011;20426;48.372;10.888;2023-04-03T02:01:32;2.03;;;1.70;;
34152;SDS011;20426;48.372;10.888;2023-04-03T02:02:03;1.60;;;1.50;;
34152;SDS011;20426;48.372;10.888;2023-04-03T02:02:33;3.25;;;2.08;;
34152;SDS011;20426;48.372;10.888;2023-04-03T02:03:04;2.15;;;1.63;;
34152;SDS011;20426;48.372;10.888;2023-04-03T02:03:35;3.95;;;2.03;;
34152;SDS011;20426;48.372;10.888;2023-04-03T02:04:06;2.38;;;1.95;;
34152;SDS011;20426;48.372;10.888;2023-04-03T02:04:37;1.85;;;1.58;;
34152;SDS011;20426;48.372;10.888;2023-04-03T02:05:08;2.90;;;1.77;;
34152;SDS011;20426;48.372;10.888;2023-04-03T02:05:39;3.38;;;2.00;;
34152;SDS011;20426;48.372;10.888;2023-04-03T02:06:09;1.67;;;1.55;;
34152;SDS011;20426;48.372;10.888;2023-04-03T02:06:40;2.60;;;1.85;;
34152;SDS011;20426;48.372;10.888;2023-04-03T02:07:11;2.55;;;1.90;;
34152;SDS011;20426;48.372;10.888;2023-04-03T02:07:42;3.28;;;1.90;;
34152;SDS011;20426;48.372;10.888;2023-04-03T02:08:13;1.83;;;1.63;;
34152;SDS011;20426;48.372;10.888;2023-04-03T02:08:44;2.58;;;1.92;;
34152;SDS011;20426;48.372;10.888;2023-04-03T02:09:15;1.65;;;1.25;;
34152;SDS011;20426;48.372;10.888;2023-04-03T02:09:45;2.40;;;1.77;;
34152;SDS011;20426;48.372;10.888;2023-04-03T02:10:16;1.90;;;1.75;;
34152;SDS011;20426;48.372;10.888;2023-04-03T02:10:47;2.90;;;1.73;;
34152;SDS011;20426;48.372;10.888;2023-04-03T02:11:19;2.30;;;1.40;;
34152;SDS011;20426;48.372;10.888;2023-04-03T02:11:50;2.60;;;1.60;;
34152;SDS011;20426;48.372;10.888;2023-04-03T02:12:21;2.55;;;1.70;;
34152;SDS011;20426;48.372;10.888;2023-04-03T02:12:51;2.13;;;1.42;;
34152;SDS011;20426;48.372;10.888;2023-04-03T02:13:22;3.03;;;1.90;;
34152;SDS011;20426;48.372;10.888;2023-04-03T02:13:53;2.25;;;1.55;;
34152;SDS011;20426;48.372;10.888;2023-04-03T02:14:23;1.60;;;1.50;;
34152;SDS011;20426;48.372;10.888;2023-04-03T02:14:54;1.80;;;1.55;;
34152;SDS011;20426;48.372;10.888;2023-04-03T02:15:25;2.75;;;1.92;;
34152;SDS011;20426;48.372;10.888;2023-04-03T02:15:56;3.67;;;1.90;;
34152;SDS011;20426;48.372;10.888;2023-04-03T02:16:27;3.03;;;1.77;;
34152;SDS011;20426;48.372;10.888;2023-04-03T02:17:00;2.95;;;1.85;;
34152;SDS011;20426;48.372;10.888;2023-04-03T02:17:31;2.90;;;1.55;;
34152;SDS011;20426;48.372;10.888;2023-04-03T02:18:01;1.77;;;1.65;;
34152;SDS011;20426;48.372;10.888;2023-04-03T02:18:32;1.88;;;1.63;;
34152;SDS011;20426;48.372;10.888;2023-04-03T02:19:03;1.92;;;1.73;;
34152;SDS011;20426;48.372;10.888;2023-04-03T02:19:34;2.22;;;1.52;;
34152;SDS011;20426;48.372;10.888;2023-04-03T02:20:05;1.80;;;1.50;;
34152;SDS011;20426;48.372;10.888;2023-04-03T02:20:37;2.00;;;1.70;;
34152;SDS011;20426;48.372;10.888;2023-04-03T02:21:07;1.88;;;1.55;;
34152;SDS011;20426;48.372;10.888;2023-04-03T02:21:38;1.77;;;1.42;;
34152;SDS011;20426;48.372;10.888;2023-04-03T02:22:09;2.45;;;1.95;;
34152;SDS011;20426;48.372;10.888;2023-04-03T02:22:40;5.75;;;1.90;;
34152;SDS011;20426;48.372;10.888;2023-04-03T02:23:11;2.47;;;1.83;;
34152;SDS011;20426;48.372;10.888;2023-04-03T02:23:41;2.85;;;2.05;;
34152;SDS011;20426;48.372;10.888;2023-04-03T02:24:12;2.95;;;1.90;;
34152;SDS011;20426;48.372;10.888;2023-04-03T02:24:43;3.08;;;1.98;;
34152;SDS011;20426;48.372;10.888;2023-04-03T02:25:14;2.70;;;1.80;;
34152;SDS011;20426;48.372;10.888;2023-04-03T02:25:45;2.03;;;1.65;;
34152;SDS011;20426;48.372;10.888;2023-04-03T02:26:16;3.20;;;1.60;;
34152;SDS011;20426;48.372;10.888;2023-04-03T02:26:47;3.28;;;1.95;;
34152;SDS011;20426;48.372;10.888;2023-04-03T02:27:18;3.20;;;1.90;;
34152;SDS011;20426;48.372;10.888;2023-04-03T02:27:49;3.35;;;1.85;;
34152;SDS011;20426;48.372;10.888;2023-04-03T02:28:20;2.25;;;2.05;;
34152;SDS011;20426;48.372;10.888;2023-04-03T02:28:50;2.00;;;1.60;;
34152;SDS011;20426;48.372;10.888;2023-04-03T02:29:21;2.28;;;1.70;;
34152;SDS011;20426;48.372;10.888;2023-04-03T02:29:52;2.40;;;1.80;;
34152;SDS011;20426;48.372;10.888;2023-04-03T02:30:23;2.08;;;1.60;;
34152;SDS011;20426;48.372;10.888;2023-04-03T02:30:54;2.40;;;1.95;;
34152;SDS011;20426;48.372;10.888;2023-04-03T02:31:24;2.28;;;1.90;;
34152;SDS011;20426;48.372;10.888;2023-04-03T02:31:55;2.42;;;1.52;;
34152;SDS011;20426;48.372;10.888;2023-04-03T02:32:26;2.25;;;1.65;;
34152;SDS011;20426;48.372;10.888;2023-04-03T02:32:57;2.58;;;1.75;;
34152;SDS011;20426;48.372;10.888;2023-04-03T02:33:27;2.65;;;1.83;;
34152;SDS011;20426;48.372;10.888;2023-04-03T02:33:58;2.28;;;1.85;;
34152;SDS011;20426;48.372;10.888;2023-04-03T02:34:29;3.78;;;2.33;;
34152;SDS011;20426;48.372;10.888;2023-04-03T02:35:00;1.85;;;1.63;;
34152;SDS011;20426;48.372;10.888;2023-04-03T02:35:31;2.38;;;1.48;;
34152;SDS011;20426;48.372;10.888;2023-04-03T02:36:02;2.22;;;1.92;;
34152;SDS011;20426;48.372;10.888;2023-04-03T02:36:37;2.80;;;1.98;;
34152;SDS011;20426;48.372;10.888;2023-04-03T02:37:07;1.67;;;1.58;;
34152;SDS011;20426;48.372;10.888;2023-04-03T02:37:38;1.83;;;1.67;;
34152;SDS011;20426;48.372;10.888;2023-04-03T02:38:09;1.77;;;1.67;;
34152;SDS011;20426;48.372;10.888;2023-04-03T02:38:40;2.03;;;1.80;;
34152;SDS011;20426;48.372;10.888;2023-04-03T02:39:11;3.83;;;1.92;;
34152;SDS011;20426;48.372;10.888;2023-04-03T02:39:42;2.50;;;2.30;;
34152;SDS011;20426;48.372;10.888;2023-04-03T02:40:12;3.17;;;2.30;;
34152;SDS011;20426;48.372;10.888;2023-04-03T02:40:43;3.78;;;1.65;;
34152;SDS011;20426;48.372;10.888;2023-04-03T02:41:14;2.15;;;1.90;;
34152;SDS011;20426;48.372;10.888;2023-04-03T02:41:45;2.50;;;1.77;;
34152;SDS011;20426;48.372;10.888;2023-04-03T02:42:15;3.17;;;1.70;;
34152;SDS011;20426;48.372;10.888;2023-04-03T02:42:46;2.20;;;2.00;;
34152;SDS011;20426;48.372;10.888;2023-04-03T02:43:17;3.20;;;1.88;;
34152;SDS011;20426;48.372;10.888;2023-04-03T02:43:48;2.50;;;1.88;;
34152;SDS011;20426;48.372;10.888;2023-04-03T02:44:19;2.03;;;1.83;;
34152;SDS011;20426;48.372;10.888;2023-04-03T02:44:50;2.97;;;1.90;;
34152;SDS011;20426;48.372;10.888;2023-04-03T02:45:20;3.53;;;2.28;;
34152;SDS011;20426;48.372;10.888;2023-04-03T02:45:51;3.92;;;2.00;;
34152;SDS011;20426;48.372;10.888;2023-04-03T02:46:22;2.55;;;1.92;;
34152;SDS011;20426;48.372;10.888;2023-04-03T02:46:52;6.07;;;1.98;;
34152;SDS011;20426;48.372;10.888;2023-04-03T02:47:23;3.67;;;1.80;;
34152;SDS011;20426;48.372;10.888;2023-04-03T02:47:54;2.08;;;1.85;;
34152;SDS011;20426;48.372;10.888;2023-04-03T02:48:25;2.83;;;1.80;;
34152;SDS011;20426;48.372;10.888;2023-04-03T02:48:56;2.55;;;2.00;;
34152;SDS011;20426;48.372;10.888;2023-04-03T02:49:26;3.60;;;2.20;;
34152;SDS011;20426;48.372;10.888;2023-04-03T02:49:57;2.10;;;1.90;;
34152;SDS011;20426;48.372;10.888;2023-04-03T02:50:28;2.28;;;1.83;;
34152;SDS011;20426;48.372;10.888;2023-04-03T02:50:59;2.80;;;1.85;;
34152;SDS011;20426;48.372;10.888;2023-04-03T02:51:29;3.78;;;1.73;;
34152;SDS011;20426;48.372;10.888;2023-04-03T02:52:00;2.28;;;1.77;;
34152;SDS011;20426;48.372;10.888;2023-04-03T02:52:31;2.45;;;1.95;;
34152;SDS011;20426;48.372;10.888;2023-04-03T02:53:02;3.83;;;2.30;;
34152;SDS011;20426;48.372;10.888;2023-04-03T02:53:33;2.40;;;2.10;;
34152;SDS011;20426;48.372;10.888;2023-04-03T02:54:03;2.28;;;2.08;;
34152;SDS011;20426;48.372;10.888;2023-04-03T02:54:34;3.22;;;1.92;;
34152;SDS011;20426;48.372;10.888;2023-04-03T02:55:05;2.00;;;1.80;;
34152;SDS011;20426;48.372;10.888;2023-04-03T02:55:36;3.15;;;2.17;;
34152;SDS011;20426;48.372;10.888;2023-04-03T02:56:07;2.47;;;1.90;;
34152;SDS011;20426;48.372;10.888;2023-04-03T02:56:38;3.67;;;2.15;;
34152;SDS011;20426;48.372;10.888;2023-04-03T02:57:09;2.80;;;2.28;;
34152;SDS011;20426;48.372;10.888;2023-04-03T02:57:40;4.93;;;2.03;;
34152;SDS011;20426;48.372;10.888;2023-04-03T02:58:10;2.75;;;1.83;;
34152;SDS011;20426;48.372;10.888;2023-04-03T02:58:41;2.88;;;1.90;;
34152;SDS011;20426;48.372;10.888;2023-04-03T02:59:12;2.88;;;2.10;;
34152;SDS011;20426;48.372;10.888;2023-04-03T02:59:43;2.28;;;2.00;;
34152;SDS011;20426;48.372;10.888;2023-04-03T03:00:14;2.53;;;2.00;;
34152;SDS011;20426;48.372;10.888;2023-04-03T03:00:45;3.53;;;1.90;;
34152;SDS011;20426;48.372;10.888;2023-04-03T03:01:16;2.30;;;1.60;;
34152;SDS011;20426;48.372;10.888;2023-04-03T03:01:46;3.75;;;2.03;;
34152;SDS011;20426;48.372;10.888;2023-04-03T03:02:17;4.03;;;2.00;;
34152;SDS011;20426;48.372;10.888;2023-04-03T03:02:48;2.20;;;1.80;;
34152;SDS011;20426;48.372;10.888;2023-04-03T03:03:19;3.58;;;1.85;;
34152;SDS011;20426;48.372;10.888;2023-04-03T03:03:50;2.35;;;1.88;;
34152;SDS011;20426;48.372;10.888;2023-04-03T03:04:21;3.30;;;1.90;;
34152;SDS011;20426;48.372;10.888;2023-04-03T03:04:52;2.70;;;1.83;;
34152;SDS011;20426;48.372;10.888;2023-04-03T03:05:22;2.60;;;1.95;;
34152;SDS011;20426;48.372;10.888;2023-04-03T03:06:03;2.70;;;2.10;;
34152;SDS011;20426;48.372;10.888;2023-04-03T03:06:36;3.60;;;2.08;;
34152;SDS011;20426;48.372;10.888;2023-04-03T03:07:06;2.92;;;1.73;;
34152;SDS011;20426;48.372;10.888;2023-04-03T03:07:37;1.80;;;1.70;;
34152;SDS011;20426;48.372;10.888;2023-04-03T03:08:08;2.38;;;1.65;;
34152;SDS011;20426;48.372;10.888;2023-04-03T03:08:39;3.58;;;2.33;;
34152;SDS011;20426;48.372;10.888;2023-04-03T03:09:10;3.05;;;1.98;;
34152;SDS011;20426;48.372;10.888;2023-04-03T03:09:42;2.78;;;1.90;;
34152;SDS011;20426;48.372;10.888;2023-04-03T03:10:13;3.42;;;2.17;;
34152;SDS011;20426;48.372;10.888;2023-04-03T03:10:44;2.55;;;1.65;;
34152;SDS011;20426;48.372;10.888;2023-04-03T03:11:15;2.40;;;1.83;;
34152;SDS011;20426;48.372;10.888;2023-04-03T03:11:45;2.38;;;2.13;;
34152;SDS011;20426;48.372;10.888;2023-04-03T03:12:16;4.00;;;2.10;;
34152;SDS011;20426;48.372;10.888;2023-04-03T03:12:51;4.55;;;2.13;;